Avoca, Wisconsin
Current Conditions -  °F | °C
As of 8:56 PM on Saturday 22 Nov 2014 (Local Time) from KLNR Reporting Station
Haze Haze  
Wind Chill: 52°   Ceiling: 700
Heat Index: 52°   Visibility: 4mi
Dew Point: 47°   Wind: 5mph
Humidity: 83%   Direction: 170°S
Pressure: 29.74"   Gusts: NA
Location:  43.18°N, 90.32°W
Report Text: KLNR 230256Z AUTO 17004KT 4SM HZ OVC007 11/08 A2974 RMK AO2 SLP068 T01110083 56008
Loading
Personal Weather Stations






























Interactive Weather Map New forecast layout! Learn more

10-Day Weather Forecast

Advertisements
Track Severe Weather on mobile